sensor_id;sensor_type;location;lat;lon;timestamp;pressure;altitude;pressure_sealevel;temperature;humidity
44313;BME280;38833;51.142;-0.974;2023-07-28T00:00:29;99052.12;;;24.24;43.26
44313;BME280;38833;51.142;-0.974;2023-07-28T00:03:03;99052.46;;;24.23;43.23
44313;BME280;38833;51.142;-0.974;2023-07-28T00:05:36;99050.21;;;24.14;43.44
44313;BME280;38833;51.142;-0.974;2023-07-28T00:08:10;99047.76;;;24.36;43.04
44313;BME280;38833;51.142;-0.974;2023-07-28T00:10:43;99047.49;;;24.29;43.53
44313;BME280;38833;51.142;-0.974;2023-07-28T00:13:16;99045.49;;;24.09;43.43
44313;BME280;38833;51.142;-0.974;2023-07-28T00:15:50;99043.78;;;23.80;43.48
44313;BME280;38833;51.142;-0.974;2023-07-28T00:18:23;99038.56;;;24.28;43.09
44313;BME280;38833;51.142;-0.974;2023-07-28T00:20:56;99038.16;;;24.18;43.13
44313;BME280;38833;51.142;-0.974;2023-07-28T00:23:30;99035.20;;;24.11;43.38
44313;BME280;38833;51.142;-0.974;2023-07-28T00:26:03;99038.86;;;24.19;43.24
44313;BME280;38833;51.142;-0.974;2023-07-28T00:28:36;99039.97;;;24.01;43.44
44313;BME280;38833;51.142;-0.974;2023-07-28T00:31:10;99038.81;;;24.30;42.95
44313;BME280;38833;51.142;-0.974;2023-07-28T00:33:43;99043.58;;;24.11;43.21
44313;BME280;38833;51.142;-0.974;2023-07-28T00:36:16;99045.29;;;23.80;43.12
44313;BME280;38833;51.142;-0.974;2023-07-28T00:38:50;99044.69;;;24.19;42.96
44313;BME280;38833;51.142;-0.974;2023-07-28T00:41:23;99044.71;;;24.21;42.88
44313;BME280;38833;51.142;-0.974;2023-07-28T00:43:56;99047.45;;;24.30;42.64
44313;BME280;38833;51.142;-0.974;2023-07-28T00:46:30;99048.39;;;23.91;42.80
44313;BME280;38833;51.142;-0.974;2023-07-28T00:49:03;99046.34;;;23.99;42.57
44313;BME280;38833;51.142;-0.974;2023-07-28T00:51:37;99050.03;;;24.34;42.43
44313;BME280;38833;51.142;-0.974;2023-07-28T00:54:11;99052.87;;;24.16;42.77
44313;BME280;38833;51.142;-0.974;2023-07-28T00:56:46;99049.72;;;24.22;42.67
44313;BME280;38833;51.142;-0.974;2023-07-28T00:59:20;99046.76;;;24.60;42.34
44313;BME280;38833;51.142;-0.974;2023-07-28T01:01:54;99045.97;;;24.26;42.52
44313;BME280;38833;51.142;-0.974;2023-07-28T01:04:27;99048.10;;;24.09;42.71
44313;BME280;38833;51.142;-0.974;2023-07-28T01:07:07;99046.79;;;24.15;42.66
44313;BME280;38833;51.142;-0.974;2023-07-28T01:10:00;99040.46;;;24.10;42.70
44313;BME280;38833;51.142;-0.974;2023-07-28T01:12:34;99042.78;;;24.04;42.80
44313;BME280;38833;51.142;-0.974;2023-07-28T01:15:08;99041.65;;;23.79;43.16
44313;BME280;38833;51.142;-0.974;2023-07-28T01:17:41;99045.61;;;23.94;42.96
44313;BME280;38833;51.142;-0.974;2023-07-28T01:20:15;99046.37;;;24.17;42.77
44313;BME280;38833;51.142;-0.974;2023-07-28T01:22:59;99047.54;;;24.26;42.61
44313;BME280;38833;51.142;-0.974;2023-07-28T01:25:49;99053.16;;;24.03;42.64
44313;BME280;38833;51.142;-0.974;2023-07-28T01:28:23;99052.83;;;24.21;42.71
44313;BME280;38833;51.142;-0.974;2023-07-28T01:30:57;99054.16;;;24.04;42.54
44313;BME280;38833;51.142;-0.974;2023-07-28T01:33:30;99056.31;;;23.90;42.81
44313;BME280;38833;51.142;-0.974;2023-07-28T01:36:04;99056.79;;;23.95;42.73
44313;BME280;38833;51.142;-0.974;2023-07-28T01:38:37;99059.94;;;24.15;42.31
44313;BME280;38833;51.142;-0.974;2023-07-28T01:41:11;99061.01;;;24.48;42.38
44313;BME280;38833;51.142;-0.974;2023-07-28T01:43:44;99062.55;;;24.22;42.50
44313;BME280;38833;51.142;-0.974;2023-07-28T01:46:17;99060.90;;;24.12;42.54
44313;BME280;38833;51.142;-0.974;2023-07-28T01:48:51;99061.38;;;24.07;42.63
44313;BME280;38833;51.142;-0.974;2023-07-28T01:51:24;99058.88;;;23.97;42.45
44313;BME280;38833;51.142;-0.974;2023-07-28T01:53:57;99058.07;;;24.43;42.43
44313;BME280;38833;51.142;-0.974;2023-07-28T01:56:30;99058.05;;;24.49;42.23
44313;BME280;38833;51.142;-0.974;2023-07-28T01:59:04;99058.03;;;23.95;42.34
44313;BME280;38833;51.142;-0.974;2023-07-28T02:01:37;99056.86;;;24.27;42.14
44313;BME280;38833;51.142;-0.974;2023-07-28T02:04:10;99055.31;;;24.21;42.26
44313;BME280;38833;51.142;-0.974;2023-07-28T02:06:44;99053.65;;;24.04;42.10
44313;BME280;38833;51.142;-0.974;2023-07-28T02:09:17;99051.32;;;23.92;42.17
44313;BME280;38833;51.142;-0.974;2023-07-28T02:11:50;99047.29;;;23.92;42.21
44313;BME280;38833;51.142;-0.974;2023-07-28T02:14:24;99046.03;;;23.83;42.19
44313;BME280;38833;51.142;-0.974;2023-07-28T02:16:57;99045.00;;;23.93;42.16
44313;BME280;38833;51.142;-0.974;2023-07-28T02:19:30;99043.63;;;24.03;41.94
44313;BME280;38833;51.142;-0.974;2023-07-28T02:22:04;99039.25;;;23.99;41.96
44313;BME280;38833;51.142;-0.974;2023-07-28T02:24:37;99038.31;;;23.97;41.94
44313;BME280;38833;51.142;-0.974;2023-07-28T02:27:11;99040.34;;;24.53;41.72
44313;BME280;38833;51.142;-0.974;2023-07-28T02:29:44;99044.60;;;24.26;41.67
44313;BME280;38833;51.142;-0.974;2023-07-28T02:32:17;99042.62;;;24.27;41.61
44313;BME280;38833;51.142;-0.974;2023-07-28T02:34:50;99041.57;;;23.84;42.09
44313;BME280;38833;51.142;-0.974;2023-07-28T02:37:25;99042.02;;;23.96;41.90
44313;BME280;38833;51.142;-0.974;2023-07-28T02:39:58;99041.09;;;23.83;42.02
44313;BME280;38833;51.142;-0.974;2023-07-28T02:42:31;99034.51;;;24.10;41.92
44313;BME280;38833;51.142;-0.974;2023-07-28T02:45:05;99032.36;;;24.32;41.88
44313;BME280;38833;51.142;-0.974;2023-07-28T02:47:39;99031.34;;;24.05;41.52
44313;BME280;38833;51.142;-0.974;2023-07-28T02:50:12;99035.12;;;24.17;41.75
44313;BME280;38833;51.142;-0.974;2023-07-28T02:52:46;99036.41;;;24.02;41.90
44313;BME280;38833;51.142;-0.974;2023-07-28T02:55:19;99037.93;;;23.96;41.59
44313;BME280;38833;51.142;-0.974;2023-07-28T02:57:52;99037.74;;;24.03;41.77
44313;BME280;38833;51.142;-0.974;2023-07-28T03:00:26;99040.12;;;23.87;41.66
44313;BME280;38833;51.142;-0.974;2023-07-28T03:02:59;99041.96;;;23.97;41.53
44313;BME280;38833;51.142;-0.974;2023-07-28T03:05:32;99042.97;;;24.29;41.77
44313;BME280;38833;51.142;-0.974;2023-07-28T03:08:06;99046.03;;;24.16;41.89
44313;BME280;38833;51.142;-0.974;2023-07-28T03:10:39;99049.10;;;24.08;41.70
44313;BME280;38833;51.142;-0.974;2023-07-28T03:13:13;99052.28;;;23.81;41.65
44313;BME280;38833;51.142;-0.974;2023-07-28T03:15:46;99057.82;;;24.39;41.41
44313;BME280;38833;51.142;-0.974;2023-07-28T03:18:19;99061.25;;;23.87;41.50
44313;BME280;38833;51.142;-0.974;2023-07-28T03:20:53;99062.62;;;23.90;41.85
44313;BME280;38833;51.142;-0.974;2023-07-28T03:23:26;99060.81;;;23.98;41.27
44313;BME280;38833;51.142;-0.974;2023-07-28T03:25:59;99060.49;;;24.20;41.61
44313;BME280;38833;51.142;-0.974;2023-07-28T03:28:33;99058.26;;;23.84;41.54
44313;BME280;38833;51.142;-0.974;2023-07-28T03:31:06;99060.87;;;23.97;41.67
44313;BME280;38833;51.142;-0.974;2023-07-28T03:33:39;99059.14;;;24.10;41.41
44313;BME280;38833;51.142;-0.974;2023-07-28T03:36:13;99062.19;;;23.99;41.58
44313;BME280;38833;51.142;-0.974;2023-07-28T03:38:47;99061.00;;;24.00;41.18
44313;BME280;38833;51.142;-0.974;2023-07-28T03:41:20;99059.01;;;23.99;41.59
44313;BME280;38833;51.142;-0.974;2023-07-28T03:43:53;99056.98;;;23.98;41.86
44313;BME280;38833;51.142;-0.974;2023-07-28T03:46:27;99057.04;;;24.09;41.33
44313;BME280;38833;51.142;-0.974;2023-07-28T03:49:00;99057.10;;;23.49;41.98
44313;BME280;38833;51.142;-0.974;2023-07-28T03:51:34;99055.79;;;23.92;42.09
44313;BME280;38833;51.142;-0.974;2023-07-28T03:54:07;99063.00;;;23.94;41.72
44313;BME280;38833;51.142;-0.974;2023-07-28T03:56:40;99066.12;;;23.72;41.51
44313;BME280;38833;51.142;-0.974;2023-07-28T03:59:14;99067.50;;;23.68;41.65
44313;BME280;38833;51.142;-0.974;2023-07-28T04:01:47;99066.71;;;24.00;41.52
44313;BME280;38833;51.142;-0.974;2023-07-28T04:04:20;99068.72;;;24.07;41.66
44313;BME280;38833;51.142;-0.974;2023-07-28T04:06:54;99070.29;;;24.05;41.37
44313;BME280;38833;51.142;-0.974;2023-07-28T04:09:28;99067.80;;;23.80;41.38
44313;BME280;38833;51.142;-0.974;2023-07-28T04:12:01;99064.49;;;23.95;41.56
44313;BME280;38833;51.142;-0.974;2023-07-28T04:14:34;99065.16;;;24.22;41.38
44313;BME280;38833;51.142;-0.974;2023-07-28T04:17:08;99069.10;;;23.79;41.34
44313;BME280;38833;51.142;-0.974;2023-07-28T04:19:41;99073.24;;;23.86;41.64
44313;BME280;38833;51.142;-0.974;2023-07-28T04:22:14;99073.38;;;23.37;41.95
44313;BME280;38833;51.142;-0.974;2023-07-28T04:24:48;99076.45;;;23.78;41.64
44313;BME280;38833;51.142;-0.974;2023-07-28T04:27:21;99078.75;;;23.74;41.35
44313;BME280;38833;51.142;-0.974;2023-07-28T04:29:54;99080.83;;;24.27;41.18
44313;BME280;38833;51.142;-0.974;2023-07-28T04:32:27;99081.21;;;23.74;41.62
44313;BME280;38833;51.142;-0.974;2023-07-28T04:35:01;99080.63;;;23.89;41.34
44313;BME280;38833;51.142;-0.974;2023-07-28T04:37:34;99077.29;;;23.56;41.54
44313;BME280;38833;51.142;-0.974;2023-07-28T04:40:08;99075.69;;;23.91;41.30
44313;BME280;38833;51.142;-0.974;2023-07-28T04:42:42;99073.29;;;23.98;41.15
44313;BME280;38833;51.142;-0.974;2023-07-28T04:45:15;99076.91;;;24.16;41.20
44313;BME280;38833;51.142;-0.974;2023-07-28T04:47:48;99075.20;;;23.84;41.35
44313;BME280;38833;51.142;-0.974;2023-07-28T04:50:22;99072.93;;;23.61;41.41
44313;BME280;38833;51.142;-0.974;2023-07-28T04:52:55;99068.10;;;24.14;41.17
44313;BME280;38833;51.142;-0.974;2023-07-28T04:55:28;99064.74;;;23.55;41.41
44313;BME280;38833;51.142;-0.974;2023-07-28T04:58:02;99062.51;;;23.98;41.43
44313;BME280;38833;51.142;-0.974;2023-07-28T05:00:35;99061.67;;;23.78;41.39
44313;BME280;38833;51.142;-0.974;2023-07-28T05:03:09;99061.94;;;23.97;41.37
44313;BME280;38833;51.142;-0.974;2023-07-28T05:05:43;99065.21;;;24.02;41.34
44313;BME280;38833;51.142;-0.974;2023-07-28T05:08:17;99068.35;;;23.62;41.61
44313;BME280;38833;51.142;-0.974;2023-07-28T05:10:50;99066.80;;;23.83;41.63
44313;BME280;38833;51.142;-0.974;2023-07-28T05:13:23;99064.05;;;23.79;41.28
44313;BME280;38833;51.142;-0.974;2023-07-28T05:15:57;99068.89;;;24.25;40.83
44313;BME280;38833;51.142;-0.974;2023-07-28T05:18:30;99074.25;;;24.01;41.14
44313;BME280;38833;51.142;-0.974;2023-07-28T05:21:03;99077.46;;;24.08;40.69
44313;BME280;38833;51.142;-0.974;2023-07-28T05:23:37;99074.46;;;24.19;40.83
44313;BME280;38833;51.142;-0.974;2023-07-28T05:26:10;99073.89;;;24.28;40.60
44313;BME280;38833;51.142;-0.974;2023-07-28T05:28:43;99077.84;;;24.02;40.68
44313;BME280;38833;51.142;-0.974;2023-07-28T05:31:17;99085.69;;;24.14;40.84
44313;BME280;38833;51.142;-0.974;2023-07-28T05:33:50;99083.45;;;24.15;40.78
44313;BME280;38833;51.142;-0.974;2023-07-28T05:36:23;99082.46;;;23.89;40.85
44313;BME280;38833;51.142;-0.974;2023-07-28T05:38:57;99082.07;;;24.01;41.10
44313;BME280;38833;51.142;-0.974;2023-07-28T05:41:31;99084.91;;;23.89;40.91
44313;BME280;38833;51.142;-0.974;2023-07-28T05:44:05;99090.98;;;23.92;40.87
44313;BME280;38833;51.142;-0.974;2023-07-28T05:46:38;99090.85;;;24.15;40.79
44313;BME280;38833;51.142;-0.974;2023-07-28T05:49:11;99092.39;;;23.73;41.14
44313;BME280;38833;51.142;-0.974;2023-07-28T05:51:45;99093.25;;;23.83;41.06
44313;BME280;38833;51.142;-0.974;2023-07-28T05:54:18;99091.14;;;23.88;40.94
44313;BME280;38833;51.142;-0.974;2023-07-28T05:56:51;99089.16;;;24.07;40.63
44313;BME280;38833;51.142;-0.974;2023-07-28T05:59:25;99088.38;;;24.17;40.79
44313;BME280;38833;51.142;-0.974;2023-07-28T06:01:58;99090.95;;;23.87;41.29
44313;BME280;38833;51.142;-0.974;2023-07-28T06:04:31;99090.24;;;24.28;40.47
44313;BME280;38833;51.142;-0.974;2023-07-28T06:07:05;99090.46;;;24.15;40.75
44313;BME280;38833;51.142;-0.974;2023-07-28T06:09:39;99089.76;;;23.91;40.84
44313;BME280;38833;51.142;-0.974;2023-07-28T06:12:12;99091.49;;;23.97;41.07
44313;BME280;38833;51.142;-0.974;2023-07-28T06:14:46;99093.91;;;23.64;40.86
44313;BME280;38833;51.142;-0.974;2023-07-28T06:17:19;99093.34;;;24.00;41.02
44313;BME280;38833;51.142;-0.974;2023-07-28T06:19:53;99096.40;;;24.02;40.90
44313;BME280;38833;51.142;-0.974;2023-07-28T06:22:26;99094.22;;;23.98;40.97
44313;BME280;38833;51.142;-0.974;2023-07-28T06:24:59;99093.55;;;23.84;41.20
44313;BME280;38833;51.142;-0.974;2023-07-28T06:27:33;99093.56;;;23.88;41.25
44313;BME280;38833;51.142;-0.974;2023-07-28T06:30:07;99095.74;;;23.83;41.04
44313;BME280;38833;51.142;-0.974;2023-07-28T06:32:41;99095.95;;;23.84;41.56
44313;BME280;38833;51.142;-0.974;2023-07-28T06:35:14;99100.37;;;23.72;41.87
44313;BME280;38833;51.142;-0.974;2023-07-28T06:37:47;99100.41;;;23.34;41.95
44313;BME280;38833;51.142;-0.974;2023-07-28T06:40:21;99102.20;;;23.72;41.82
44313;BME280;38833;51.142;-0.974;2023-07-28T06:42:54;99104.88;;;23.71;41.79
44313;BME280;38833;51.142;-0.974;2023-07-28T06:45:27;99104.84;;;23.93;41.52
44313;BME280;38833;51.142;-0.974;2023-07-28T06:48:01;99105.25;;;23.89;41.45
44313;BME280;38833;51.142;-0.974;2023-07-28T06:50:34;99104.45;;;23.96;41.95
44313;BME280;38833;51.142;-0.974;2023-07-28T06:53:08;99103.47;;;24.01;41.68
44313;BME280;38833;51.142;-0.974;2023-07-28T06:55:43;99105.34;;;23.94;41.82
44313;BME280;38833;51.142;-0.974;2023-07-28T06:58:16;99106.66;;;24.01;41.70
44313;BME280;38833;51.142;-0.974;2023-07-28T07:00:50;99106.54;;;23.89;41.42
44313;BME280;38833;51.142;-0.974;2023-07-28T07:03:23;99107.67;;;24.10;41.33
44313;BME280;38833;51.142;-0.974;2023-07-28T07:05:56;99104.07;;;23.89;41.26
44313;BME280;38833;51.142;-0.974;2023-07-28T07:08:30;99108.79;;;23.79;41.48
44313;BME280;38833;51.142;-0.974;2023-07-28T07:11:03;99111.44;;;23.77;41.30
44313;BME280;38833;51.142;-0.974;2023-07-28T07:13:36;99114.24;;;23.68;41.72
44313;BME280;38833;51.142;-0.974;2023-07-28T07:16:14;99114.66;;;23.87;41.79
44313;BME280;38833;51.142;-0.974;2023-07-28T07:18:47;99118.94;;;23.51;42.14
44313;BME280;38833;51.142;-0.974;2023-07-28T07:21:20;99119.16;;;23.58;42.06
44313;BME280;38833;51.142;-0.974;2023-07-28T07:23:53;99121.39;;;23.89;41.43
44313;BME280;38833;51.142;-0.974;2023-07-28T07:26:27;99122.48;;;23.81;41.63
44313;BME280;38833;51.142;-0.974;2023-07-28T07:29:00;99133.92;;;23.99;41.83
44313;BME280;38833;51.142;-0.974;2023-07-28T07:31:33;99129.95;;;23.82;42.09
44313;BME280;38833;51.142;-0.974;2023-07-28T07:34:07;99125.82;;;23.43;42.42
44313;BME280;38833;51.142;-0.974;2023-07-28T07:36:40;99128.20;;;23.51;42.69
44313;BME280;38833;51.142;-0.974;2023-07-28T07:39:14;99135.15;;;23.62;42.72
44313;BME280;38833;51.142;-0.974;2023-07-28T07:41:47;99135.57;;;23.52;42.75
44313;BME280;38833;51.142;-0.974;2023-07-28T07:44:20;99141.42;;;23.29;43.23
44313;BME280;38833;51.142;-0.974;2023-07-28T07:46:54;99139.97;;;23.27;43.21
44313;BME280;38833;51.142;-0.974;2023-07-28T07:49:27;99136.04;;;23.71;42.54
44313;BME280;38833;51.142;-0.974;2023-07-28T07:52:00;99132.55;;;23.66;42.52
44313;BME280;38833;51.142;-0.974;2023-07-28T07:54:34;99129.58;;;23.82;42.31
44313;BME280;38833;51.142;-0.974;2023-07-28T07:57:07;99130.70;;;23.60;42.37
44313;BME280;38833;51.142;-0.974;2023-07-28T07:59:41;99130.84;;;23.92;42.55
44313;BME280;38833;51.142;-0.974;2023-07-28T08:02:14;99134.51;;;23.56;42.63
44313;BME280;38833;51.142;-0.974;2023-07-28T08:04:47;99129.89;;;23.78;42.33
44313;BME280;38833;51.142;-0.974;2023-07-28T08:07:21;99127.85;;;23.91;42.33
44313;BME280;38833;51.142;-0.974;2023-07-28T08:09:54;99128.43;;;23.53;42.86
44313;BME280;38833;51.142;-0.974;2023-07-28T08:12:27;99127.20;;;23.58;42.82
44313;BME280;38833;51.142;-0.974;2023-07-28T08:15:01;99129.76;;;23.66;42.43
44313;BME280;38833;51.142;-0.974;2023-07-28T08:17:34;99136.17;;;23.76;42.62
44313;BME280;38833;51.142;-0.974;2023-07-28T08:20:08;99141.07;;;23.86;42.27
44313;BME280;38833;51.142;-0.974;2023-07-28T08:22:41;99139.57;;;24.28;42.02
44313;BME280;38833;51.142;-0.974;2023-07-28T08:25:15;99138.80;;;23.88;42.92
44313;BME280;38833;51.142;-0.974;2023-07-28T08:27:49;99140.27;;;23.82;43.13
44313;BME280;38833;51.142;-0.974;2023-07-28T08:30:22;99144.40;;;23.88;43.12
44313;BME280;38833;51.142;-0.974;2023-07-28T08:32:56;99146.83;;;23.69;43.51
44313;BME280;38833;51.142;-0.974;2023-07-28T08:35:29;99145.75;;;23.73;43.59
44313;BME280;38833;51.142;-0.974;2023-07-28T08:38:02;99146.41;;;23.87;43.65
44313;BME280;38833;51.142;-0.974;2023-07-28T08:40:36;99147.81;;;24.13;42.84
44313;BME280;38833;51.142;-0.974;2023-07-28T08:43:09;99141.86;;;23.82;43.51
44313;BME280;38833;51.142;-0.974;2023-07-28T08:45:43;99147.19;;;23.82;43.58
44313;BME280;38833;51.142;-0.974;2023-07-28T08:48:16;99149.56;;;24.15;42.97
44313;BME280;38833;51.142;-0.974;2023-07-28T08:50:50;99153.75;;;23.48;43.56
44313;BME280;38833;51.142;-0.974;2023-07-28T08:53:24;99153.07;;;23.79;43.43
44313;BME280;38833;51.142;-0.974;2023-07-28T08:55:57;99151.06;;;23.67;43.69
44313;BME280;38833;51.142;-0.974;2023-07-28T08:58:30;99146.92;;;23.85;43.37
44313;BME280;38833;51.142;-0.974;2023-07-28T09:01:16;99146.18;;;24.19;42.86
44313;BME280;38833;51.142;-0.974;2023-07-28T09:03:49;99147.34;;;23.67;43.10
44313;BME280;38833;51.142;-0.974;2023-07-28T09:06:28;99147.23;;;24.06;43.04
44313;BME280;38833;51.142;-0.974;2023-07-28T09:09:02;99147.47;;;23.98;43.12
44313;BME280;38833;51.142;-0.974;2023-07-28T09:11:44;99153.57;;;23.76;43.62
44313;BME280;38833;51.142;-0.974;2023-07-28T09:14:19;99150.84;;;23.89;43.33
44313;BME280;38833;51.142;-0.974;2023-07-28T09:16:53;99149.43;;;23.84;43.43
44313;BME280;38833;51.142;-0.974;2023-07-28T09:19:26;99151.43;;;23.72;43.57
44313;BME280;38833;51.142;-0.974;2023-07-28T09:22:01;99150.00;;;24.05;43.47
44313;BME280;38833;51.142;-0.974;2023-07-28T09:24:35;99151.11;;;23.47;43.98
44313;BME280;38833;51.142;-0.974;2023-07-28T09:27:19;99151.25;;;23.58;43.37
44313;BME280;38833;51.142;-0.974;2023-07-28T09:29:54;99152.44;;;23.82;43.40
44313;BME280;38833;51.142;-0.974;2023-07-28T09:32:30;99152.72;;;23.70;43.70
44313;BME280;38833;51.142;-0.974;2023-07-28T09:35:08;99150.95;;;23.56;43.89
44313;BME280;38833;51.142;-0.974;2023-07-28T09:37:43;99150.03;;;23.77;43.57
44313;BME280;38833;51.142;-0.974;2023-07-28T09:40:18;99148.31;;;24.25;42.84
44313;BME280;38833;51.142;-0.974;2023-07-28T09:42:51;99151.27;;;24.11;42.68
44313;BME280;38833;51.142;-0.974;2023-07-28T09:45:25;99151.00;;;24.39;42.61
44313;BME280;38833;51.142;-0.974;2023-07-28T09:47:58;99153.17;;;24.53;42.35
44313;BME280;38833;51.142;-0.974;2023-07-28T09:50:38;99156.61;;;24.13;42.58
44313;BME280;38833;51.142;-0.974;2023-07-28T09:53:12;99158.93;;;25.01;41.59
44313;BME280;38833;51.142;-0.974;2023-07-28T09:55:46;99163.34;;;24.64;42.21
44313;BME280;38833;51.142;-0.974;2023-07-28T09:58:24;99163.06;;;24.50;41.88
44313;BME280;38833;51.142;-0.974;2023-07-28T10:00:58;99165.21;;;25.05;41.06
44313;BME280;38833;51.142;-0.974;2023-07-28T10:03:32;99169.89;;;25.18;40.99
44313;BME280;38833;51.142;-0.974;2023-07-28T10:06:06;99170.82;;;24.88;41.23
44313;BME280;38833;51.142;-0.974;2023-07-28T10:08:40;99169.97;;;24.40;42.60
44313;BME280;38833;51.142;-0.974;2023-07-28T10:11:15;99174.28;;;24.84;41.77
44313;BME280;38833;51.142;-0.974;2023-07-28T10:13:52;99173.54;;;24.52;41.52
44313;BME280;38833;51.142;-0.974;2023-07-28T10:16:30;99174.13;;;24.85;41.31
44313;BME280;38833;51.142;-0.974;2023-07-28T10:19:05;99171.70;;;24.76;42.10
44313;BME280;38833;51.142;-0.974;2023-07-28T10:21:40;99172.03;;;24.75;41.57
44313;BME280;38833;51.142;-0.974;2023-07-28T10:24:14;99173.96;;;24.59;41.89
44313;BME280;38833;51.142;-0.974;2023-07-28T10:26:47;99173.73;;;24.66;41.89
44313;BME280;38833;51.142;-0.974;2023-07-28T10:29:21;99169.45;;;25.09;41.52
44313;BME280;38833;51.142;-0.974;2023-07-28T10:31:55;99167.91;;;25.13;41.51
44313;BME280;38833;51.142;-0.974;2023-07-28T10:34:29;99171.90;;;25.41;41.06
44313;BME280;38833;51.142;-0.974;2023-07-28T10:37:02;99171.70;;;25.06;41.14
44313;BME280;38833;51.142;-0.974;2023-07-28T10:39:36;99172.04;;;25.18;41.02
44313;BME280;38833;51.142;-0.974;2023-07-28T10:42:09;99174.78;;;25.19;40.91
44313;BME280;38833;51.142;-0.974;2023-07-28T10:44:43;99175.33;;;24.98;41.02
44313;BME280;38833;51.142;-0.974;2023-07-28T10:47:16;99174.85;;;25.27;40.82
44313;BME280;38833;51.142;-0.974;2023-07-28T10:49:49;99176.28;;;25.01;41.45
44313;BME280;38833;51.142;-0.974;2023-07-28T10:52:24;99175.47;;;25.36;41.15
44313;BME280;38833;51.142;-0.974;2023-07-28T10:54:57;99178.56;;;24.82;41.68
44313;BME280;38833;51.142;-0.974;2023-07-28T10:57:30;99183.96;;;24.83;41.60
44313;BME280;38833;51.142;-0.974;2023-07-28T11:00:05;99183.45;;;24.56;41.76
44313;BME280;38833;51.142;-0.974;2023-07-28T11:02:42;99184.54;;;24.65;42.51
44313;BME280;38833;51.142;-0.974;2023-07-28T11:05:20;99186.00;;;24.78;41.36
44313;BME280;38833;51.142;-0.974;2023-07-28T11:07:55;99191.53;;;24.73;41.90
44313;BME280;38833;51.142;-0.974;2023-07-28T11:10:30;99196.40;;;24.60;41.68
44313;BME280;38833;51.142;-0.974;2023-07-28T11:13:06;99196.91;;;24.92;41.68
44313;BME280;38833;51.142;-0.974;2023-07-28T11:15:39;99194.29;;;24.65;42.05
44313;BME280;38833;51.142;-0.974;2023-07-28T11:18:15;99194.74;;;25.09;41.31
44313;BME280;38833;51.142;-0.974;2023-07-28T11:20:49;99189.67;;;24.79;41.88
44313;BME280;38833;51.142;-0.974;2023-07-28T11:23:22;99185.60;;;24.83;41.86
44313;BME280;38833;51.142;-0.974;2023-07-28T11:25:55;99185.72;;;24.27;42.90
44313;BME280;38833;51.142;-0.974;2023-07-28T11:28:29;99180.60;;;24.30;42.59
44313;BME280;38833;51.142;-0.974;2023-07-28T11:31:02;99181.31;;;24.60;42.40
44313;BME280;38833;51.142;-0.974;2023-07-28T11:33:36;99179.57;;;24.58;42.61
44313;BME280;38833;51.142;-0.974;2023-07-28T11:36:09;99177.62;;;24.88;42.06
44313;BME280;38833;51.142;-0.974;2023-07-28T11:38:42;99175.90;;;24.74;42.77
44313;BME280;38833;51.142;-0.974;2023-07-28T11:41:16;99178.38;;;24.69;42.46
44313;BME280;38833;51.142;-0.974;2023-07-28T11:43:50;99180.52;;;24.44;42.92
44313;BME280;38833;51.142;-0.974;2023-07-28T11:46:32;99183.68;;;25.07;42.36
44313;BME280;38833;51.142;-0.974;2023-07-28T11:49:09;99181.88;;;25.46;40.88
44313;BME280;38833;51.142;-0.974;2023-07-28T11:51:44;99181.50;;;25.80;40.77
44313;BME280;38833;51.142;-0.974;2023-07-28T11:54:19;99180.01;;;25.62;40.61
44313;BME280;38833;51.142;-0.974;2023-07-28T11:56:55;99175.44;;;25.82;40.34
44313;BME280;38833;51.142;-0.974;2023-07-28T11:59:29;99178.00;;;26.05;40.34
44313;BME280;38833;51.142;-0.974;2023-07-28T12:02:04;99178.50;;;25.26;41.35
44313;BME280;38833;51.142;-0.974;2023-07-28T12:04:39;99179.25;;;25.58;40.72
44313;BME280;38833;51.142;-0.974;2023-07-28T12:07:14;99177.42;;;25.69;40.74
44313;BME280;38833;51.142;-0.974;2023-07-28T12:09:50;99177.08;;;25.54;41.05
44313;BME280;38833;51.142;-0.974;2023-07-28T12:12:24;99174.89;;;25.54;40.99
44313;BME280;38833;51.142;-0.974;2023-07-28T12:14:58;99174.47;;;25.48;41.24
44313;BME280;38833;51.142;-0.974;2023-07-28T12:17:31;99168.06;;;25.84;40.54
44313;BME280;38833;51.142;-0.974;2023-07-28T12:20:06;99166.74;;;25.21;41.46
44313;BME280;38833;51.142;-0.974;2023-07-28T12:22:41;99169.51;;;25.50;41.28
44313;BME280;38833;51.142;-0.974;2023-07-28T12:25:14;99167.48;;;25.39;41.10
44313;BME280;38833;51.142;-0.974;2023-07-28T12:27:48;99167.71;;;25.65;41.08
44313;BME280;38833;51.142;-0.974;2023-07-28T12:30:21;99165.70;;;25.73;40.89
44313;BME280;38833;51.142;-0.974;2023-07-28T12:32:55;99168.75;;;25.93;40.55
44313;BME280;38833;51.142;-0.974;2023-07-28T12:35:29;99170.53;;;25.79;40.75
44313;BME280;38833;51.142;-0.974;2023-07-28T12:38:03;99169.87;;;25.96;40.39
44313;BME280;38833;51.142;-0.974;2023-07-28T12:40:36;99171.51;;;25.89;40.47
44313;BME280;38833;51.142;-0.974;2023-07-28T12:43:10;99169.45;;;25.97;40.52
44313;BME280;38833;51.142;-0.974;2023-07-28T12:45:43;99167.44;;;25.64;40.62
44313;BME280;38833;51.142;-0.974;2023-07-28T12:48:17;99171.48;;;25.02;41.18
44313;BME280;38833;51.142;-0.974;2023-07-28T12:50:50;99168.25;;;25.79;40.41
44313;BME280;38833;51.142;-0.974;2023-07-28T12:53:24;99171.89;;;25.93;40.64
44313;BME280;38833;51.142;-0.974;2023-07-28T12:55:57;99170.34;;;25.71;40.57
44313;BME280;38833;51.142;-0.974;2023-07-28T12:58:31;99169.40;;;25.73;40.84
44313;BME280;38833;51.142;-0.974;2023-07-28T13:01:04;99169.81;;;26.13;40.22
44313;BME280;38833;51.142;-0.974;2023-07-28T13:03:38;99168.84;;;25.54;40.41
44313;BME280;38833;51.142;-0.974;2023-07-28T13:06:11;99170.43;;;26.15;40.27
44313;BME280;38833;51.142;-0.974;2023-07-28T13:08:44;99169.52;;;25.55;40.41
44313;BME280;38833;51.142;-0.974;2023-07-28T13:11:17;99166.39;;;26.32;39.67
44313;BME280;38833;51.142;-0.974;2023-07-28T13:13:51;99170.89;;;26.30;39.53
44313;BME280;38833;51.142;-0.974;2023-07-28T13:16:24;99169.90;;;26.39;39.59
44313;BME280;38833;51.142;-0.974;2023-07-28T13:18:58;99167.21;;;26.24;39.57
44313;BME280;38833;51.142;-0.974;2023-07-28T13:21:31;99165.13;;;26.11;39.54
44313;BME280;38833;51.142;-0.974;2023-07-28T13:24:05;99167.23;;;25.75;39.76